sensor_id;sensor_type;location;lat;lon;timestamp;temperature;humidity
65460;DHT22;52058;49.822;6.754;2023-03-29T00:02:01;6.33;92.00
65460;DHT22;52058;49.822;6.754;2023-03-29T00:04:28;6.40;93.18
65460;DHT22;52058;49.822;6.754;2023-03-29T00:06:55;6.37;92.47
65460;DHT22;52058;49.822;6.754;2023-03-29T00:09:23;6.35;92.40
65460;DHT22;52058;49.822;6.754;2023-03-29T00:11:51;6.30;92.53
65460;DHT22;52058;49.822;6.754;2023-03-29T00:14:17;6.28;92.87
65460;DHT22;52058;49.822;6.754;2023-03-29T00:16:44;6.33;92.95
65460;DHT22;52058;49.822;6.754;2023-03-29T00:19:11;6.28;92.40
65460;DHT22;52058;49.822;6.754;2023-03-29T00:21:37;6.26;92.51
65460;DHT22;52058;49.822;6.754;2023-03-29T00:24:04;6.26;92.24
65460;DHT22;52058;49.822;6.754;2023-03-29T00:26:32;6.32;93.25
65460;DHT22;52058;49.822;6.754;2023-03-29T00:28:59;6.33;93.04
65460;DHT22;52058;49.822;6.754;2023-03-29T00:31:25;6.32;93.35
65460;DHT22;52058;49.822;6.754;2023-03-29T00:33:52;6.33;93.54
65460;DHT22;52058;49.822;6.754;2023-03-29T00:36:20;6.33;94.02
65460;DHT22;52058;49.822;6.754;2023-03-29T00:38:47;6.37;93.70
65460;DHT22;52058;49.822;6.754;2023-03-29T00:41:14;6.35;94.25
65460;DHT22;52058;49.822;6.754;2023-03-29T00:43:54;6.39;93.64
65460;DHT22;52058;49.822;6.754;2023-03-29T00:46:21;6.36;93.21
65460;DHT22;52058;49.822;6.754;2023-03-29T00:48:49;6.30;92.75
65460;DHT22;52058;49.822;6.754;2023-03-29T00:51:18;6.32;93.36
65460;DHT22;52058;49.822;6.754;2023-03-29T00:53:48;6.29;93.21
65460;DHT22;52058;49.822;6.754;2023-03-29T00:56:19;6.25;93.26
65460;DHT22;52058;49.822;6.754;2023-03-29T00:58:52;6.16;93.60
65460;DHT22;52058;49.822;6.754;2023-03-29T01:01:23;6.14;94.27
65460;DHT22;52058;49.822;6.754;2023-03-29T01:03:56;6.01;94.32
65460;DHT22;52058;49.822;6.754;2023-03-29T01:06:25;6.01;94.35
65460;DHT22;52058;49.822;6.754;2023-03-29T01:08:56;6.01;94.38
65460;DHT22;52058;49.822;6.754;2023-03-29T01:11:25;6.02;95.28
65460;DHT22;52058;49.822;6.754;2023-03-29T01:13:57;5.99;95.20
65460;DHT22;52058;49.822;6.754;2023-03-29T01:16:25;5.98;95.64
65460;DHT22;52058;49.822;6.754;2023-03-29T01:18:54;6.02;95.65
65460;DHT22;52058;49.822;6.754;2023-03-29T01:21:26;5.99;95.24
65460;DHT22;52058;49.822;6.754;2023-03-29T01:24:18;6.02;95.32
65460;DHT22;52058;49.822;6.754;2023-03-29T01:26:55;5.99;94.99
65460;DHT22;52058;49.822;6.754;2023-03-29T01:29:27;6.02;95.32
65460;DHT22;52058;49.822;6.754;2023-03-29T01:31:59;6.06;95.19
65460;DHT22;52058;49.822;6.754;2023-03-29T01:34:32;6.01;95.73
65460;DHT22;52058;49.822;6.754;2023-03-29T01:37:04;5.99;95.24
65460;DHT22;52058;49.822;6.754;2023-03-29T01:39:33;6.01;95.14
65460;DHT22;52058;49.822;6.754;2023-03-29T01:42:15;6.04;95.16
65460;DHT22;52058;49.822;6.754;2023-03-29T01:44:51;6.02;94.97
65460;DHT22;52058;49.822;6.754;2023-03-29T01:47:26;6.08;94.96
65460;DHT22;52058;49.822;6.754;2023-03-29T01:50:00;6.02;95.18
65460;DHT22;52058;49.822;6.754;2023-03-29T01:52:34;6.06;94.84
65460;DHT22;52058;49.822;6.754;2023-03-29T01:55:05;5.99;94.67
65460;DHT22;52058;49.822;6.754;2023-03-29T01:57:34;6.05;95.32
65460;DHT22;52058;49.822;6.754;2023-03-29T02:00:04;6.01;95.70
65460;DHT22;52058;49.822;6.754;2023-03-29T02:02:36;5.95;94.99
65460;DHT22;52058;49.822;6.754;2023-03-29T02:05:05;5.93;95.19
65460;DHT22;52058;49.822;6.754;2023-03-29T02:07:35;5.84;95.35
65460;DHT22;52058;49.822;6.754;2023-03-29T02:10:04;5.85;95.57
65460;DHT22;52058;49.822;6.754;2023-03-29T02:12:31;5.77;95.67
65460;DHT22;52058;49.822;6.754;2023-03-29T02:14:58;5.70;95.82
65460;DHT22;52058;49.822;6.754;2023-03-29T02:17:27;5.64;96.15
65460;DHT22;52058;49.822;6.754;2023-03-29T02:19:56;5.60;95.95
65460;DHT22;52058;49.822;6.754;2023-03-29T02:22:27;5.50;96.63
65460;DHT22;52058;49.822;6.754;2023-03-29T02:24:57;5.47;96.20
65460;DHT22;52058;49.822;6.754;2023-03-29T02:27:25;5.46;96.24
65460;DHT22;52058;49.822;6.754;2023-03-29T02:29:52;5.44;96.39
65460;DHT22;52058;49.822;6.754;2023-03-29T02:32:21;5.37;96.44
65460;DHT22;52058;49.822;6.754;2023-03-29T02:34:53;5.37;96.67
65460;DHT22;52058;49.822;6.754;2023-03-29T02:37:24;5.46;96.66
65460;DHT22;52058;49.822;6.754;2023-03-29T02:39:56;5.50;96.54
65460;DHT22;52058;49.822;6.754;2023-03-29T02:42:24;5.56;96.34
65460;DHT22;52058;49.822;6.754;2023-03-29T02:44:54;5.60;96.00
65460;DHT22;52058;49.822;6.754;2023-03-29T02:47:24;5.58;95.73
65460;DHT22;52058;49.822;6.754;2023-03-29T02:49:53;5.66;95.47
65460;DHT22;52058;49.822;6.754;2023-03-29T02:52:22;5.64;95.62
65460;DHT22;52058;49.822;6.754;2023-03-29T02:54:51;5.73;95.53
65460;DHT22;52058;49.822;6.754;2023-03-29T02:57:20;5.67;95.70
65460;DHT22;52058;49.822;6.754;2023-03-29T02:59:50;5.70;96.02
65460;DHT22;52058;49.822;6.754;2023-03-29T03:02:17;5.78;95.74
65460;DHT22;52058;49.822;6.754;2023-03-29T03:04:44;5.81;95.88
65460;DHT22;52058;49.822;6.754;2023-03-29T03:07:12;5.79;95.91
65460;DHT22;52058;49.822;6.754;2023-03-29T03:09:39;5.84;95.96
65460;DHT22;52058;49.822;6.754;2023-03-29T03:12:05;5.87;95.50
65460;DHT22;52058;49.822;6.754;2023-03-29T03:14:32;5.91;95.39
65460;DHT22;52058;49.822;6.754;2023-03-29T03:16:59;5.99;95.74
65460;DHT22;52058;49.822;6.754;2023-03-29T03:19:25;6.01;94.80
65460;DHT22;52058;49.822;6.754;2023-03-29T03:21:52;5.98;94.73
65460;DHT22;52058;49.822;6.754;2023-03-29T03:24:20;5.93;94.89
65460;DHT22;52058;49.822;6.754;2023-03-29T03:26:46;5.85;94.77
65460;DHT22;52058;49.822;6.754;2023-03-29T03:29:14;5.93;95.18
65460;DHT22;52058;49.822;6.754;2023-03-29T03:31:41;6.04;95.51
65460;DHT22;52058;49.822;6.754;2023-03-29T03:34:09;6.08;94.81
65460;DHT22;52058;49.822;6.754;2023-03-29T03:36:36;6.06;94.93
65460;DHT22;52058;49.822;6.754;2023-03-29T03:39:03;6.11;95.06
65460;DHT22;52058;49.822;6.754;2023-03-29T03:41:33;6.14;95.47
65460;DHT22;52058;49.822;6.754;2023-03-29T03:44:00;6.14;95.38
65460;DHT22;52058;49.822;6.754;2023-03-29T03:46:26;6.14;95.42
65460;DHT22;52058;49.822;6.754;2023-03-29T03:48:53;6.12;95.60
65460;DHT22;52058;49.822;6.754;2023-03-29T03:51:19;6.09;95.33
65460;DHT22;52058;49.822;6.754;2023-03-29T03:53:46;6.05;95.59
65460;DHT22;52058;49.822;6.754;2023-03-29T03:56:13;6.01;95.80
65460;DHT22;52058;49.822;6.754;2023-03-29T03:58:42;6.09;96.11
65460;DHT22;52058;49.822;6.754;2023-03-29T04:01:08;6.05;96.06
65460;DHT22;52058;49.822;6.754;2023-03-29T04:03:36;6.02;95.96
65460;DHT22;52058;49.822;6.754;2023-03-29T04:06:04;5.97;96.14
65460;DHT22;52058;49.822;6.754;2023-03-29T04:08:30;5.85;96.17
65460;DHT22;52058;49.822;6.754;2023-03-29T04:10:58;5.84;96.31
65460;DHT22;52058;49.822;6.754;2023-03-29T04:13:25;5.79;95.91
65460;DHT22;52058;49.822;6.754;2023-03-29T04:15:53;5.83;96.11
65460;DHT22;52058;49.822;6.754;2023-03-29T04:18:21;5.85;95.75
65460;DHT22;52058;49.822;6.754;2023-03-29T04:20:48;5.91;95.62
65460;DHT22;52058;49.822;6.754;2023-03-29T04:23:15;5.87;96.11
65460;DHT22;52058;49.822;6.754;2023-03-29T04:25:42;5.90;95.85
65460;DHT22;52058;49.822;6.754;2023-03-29T04:28:10;5.90;95.91
65460;DHT22;52058;49.822;6.754;2023-03-29T04:30:36;5.93;95.50
65460;DHT22;52058;49.822;6.754;2023-03-29T04:33:04;5.95;96.02
65460;DHT22;52058;49.822;6.754;2023-03-29T04:35:31;6.01;95.78
65460;DHT22;52058;49.822;6.754;2023-03-29T04:37:58;5.99;95.45
65460;DHT22;52058;49.822;6.754;2023-03-29T04:40:24;6.06;95.41
65460;DHT22;52058;49.822;6.754;2023-03-29T04:42:51;6.12;95.30
65460;DHT22;52058;49.822;6.754;2023-03-29T04:45:18;6.14;95.20
65460;DHT22;52058;49.822;6.754;2023-03-29T04:47:45;6.11;95.33
65460;DHT22;52058;49.822;6.754;2023-03-29T04:50:13;6.12;95.16
65460;DHT22;52058;49.822;6.754;2023-03-29T04:52:40;6.15;95.18
65460;DHT22;52058;49.822;6.754;2023-03-29T04:55:07;6.18;95.20
65460;DHT22;52058;49.822;6.754;2023-03-29T04:57:34;6.18;94.47
65460;DHT22;52058;49.822;6.754;2023-03-29T05:00:01;6.15;94.29
65460;DHT22;52058;49.822;6.754;2023-03-29T05:02:32;6.14;94.16
65460;DHT22;52058;49.822;6.754;2023-03-29T05:04:59;6.19;94.65
65460;DHT22;52058;49.822;6.754;2023-03-29T05:07:27;6.18;94.12
65460;DHT22;52058;49.822;6.754;2023-03-29T05:09:54;6.26;95.09
65460;DHT22;52058;49.822;6.754;2023-03-29T05:12:21;6.24;95.10
65460;DHT22;52058;49.822;6.754;2023-03-29T05:14:47;6.32;94.75
65460;DHT22;52058;49.822;6.754;2023-03-29T05:17:14;6.35;94.49
65460;DHT22;52058;49.822;6.754;2023-03-29T05:19:40;6.32;94.45
65460;DHT22;52058;49.822;6.754;2023-03-29T05:22:07;6.39;94.62
65460;DHT22;52058;49.822;6.754;2023-03-29T05:24:35;6.36;93.99
65460;DHT22;52058;49.822;6.754;2023-03-29T05:27:02;6.36;93.64
65460;DHT22;52058;49.822;6.754;2023-03-29T05:29:29;6.40;94.22
65460;DHT22;52058;49.822;6.754;2023-03-29T05:31:57;6.43;93.84
65460;DHT22;52058;49.822;6.754;2023-03-29T05:34:23;6.46;94.26
65460;DHT22;52058;49.822;6.754;2023-03-29T05:36:50;6.43;93.56
65460;DHT22;52058;49.822;6.754;2023-03-29T05:39:17;6.53;93.15
65460;DHT22;52058;49.822;6.754;2023-03-29T05:41:45;6.53;92.93
65460;DHT22;52058;49.822;6.754;2023-03-29T05:44:12;6.57;92.92
65460;DHT22;52058;49.822;6.754;2023-03-29T05:46:38;6.56;93.41
65460;DHT22;52058;49.822;6.754;2023-03-29T05:49:05;6.62;93.14
65460;DHT22;52058;49.822;6.754;2023-03-29T05:51:31;6.67;93.44
65460;DHT22;52058;49.822;6.754;2023-03-29T05:53:59;6.74;93.84
65460;DHT22;52058;49.822;6.754;2023-03-29T05:56:26;6.77;93.92
65460;DHT22;52058;49.822;6.754;2023-03-29T05:58:54;6.79;93.44
65460;DHT22;52058;49.822;6.754;2023-03-29T06:01:21;6.85;92.92
65460;DHT22;52058;49.822;6.754;2023-03-29T06:03:48;6.91;92.50
65460;DHT22;52058;49.822;6.754;2023-03-29T06:06:15;6.94;92.50
65460;DHT22;52058;49.822;6.754;2023-03-29T06:08:43;7.01;91.56
65460;DHT22;52058;49.822;6.754;2023-03-29T06:11:11;7.05;91.92
65460;DHT22;52058;49.822;6.754;2023-03-29T06:13:38;7.14;91.66
65460;DHT22;52058;49.822;6.754;2023-03-29T06:16:08;7.19;91.43
65460;DHT22;52058;49.822;6.754;2023-03-29T06:18:35;7.16;91.99
65460;DHT22;52058;49.822;6.754;2023-03-29T06:21:05;7.16;92.08
65460;DHT22;52058;49.822;6.754;2023-03-29T06:23:32;7.21;91.47
65460;DHT22;52058;49.822;6.754;2023-03-29T06:25:59;7.28;90.60
65460;DHT22;52058;49.822;6.754;2023-03-29T06:28:26;7.36;91.08
65460;DHT22;52058;49.822;6.754;2023-03-29T06:30:52;7.43;91.41
65460;DHT22;52058;49.822;6.754;2023-03-29T06:33:23;7.51;91.16
65460;DHT22;52058;49.822;6.754;2023-03-29T06:35:49;7.59;90.80
65460;DHT22;52058;49.822;6.754;2023-03-29T06:38:16;7.62;90.66
65460;DHT22;52058;49.822;6.754;2023-03-29T06:40:43;7.61;89.82
65460;DHT22;52058;49.822;6.754;2023-03-29T06:43:11;7.74;89.22
65460;DHT22;52058;49.822;6.754;2023-03-29T06:45:39;7.83;89.58
65460;DHT22;52058;49.822;6.754;2023-03-29T06:48:06;7.91;89.07
65460;DHT22;52058;49.822;6.754;2023-03-29T06:50:34;7.94;88.52
65460;DHT22;52058;49.822;6.754;2023-03-29T06:53:01;8.10;88.20
65460;DHT22;52058;49.822;6.754;2023-03-29T06:55:28;8.22;87.89
65460;DHT22;52058;49.822;6.754;2023-03-29T06:57:56;8.25;86.87
65460;DHT22;52058;49.822;6.754;2023-03-29T07:00:22;8.31;86.16
65460;DHT22;52058;49.822;6.754;2023-03-29T07:02:53;8.40;86.30
65460;DHT22;52058;49.822;6.754;2023-03-29T07:05:20;8.55;86.16
65460;DHT22;52058;49.822;6.754;2023-03-29T07:07:49;8.59;84.63
65460;DHT22;52058;49.822;6.754;2023-03-29T07:10:22;8.73;84.88
65460;DHT22;52058;49.822;6.754;2023-03-29T07:12:50;8.71;83.38
65460;DHT22;52058;49.822;6.754;2023-03-29T07:15:17;8.79;82.33
65460;DHT22;52058;49.822;6.754;2023-03-29T07:17:44;8.90;81.93
65460;DHT22;52058;49.822;6.754;2023-03-29T07:20:11;8.87;82.61
65460;DHT22;52058;49.822;6.754;2023-03-29T07:22:39;8.96;83.06
65460;DHT22;52058;49.822;6.754;2023-03-29T07:25:07;8.90;80.26
65460;DHT22;52058;49.822;6.754;2023-03-29T07:27:35;9.09;80.86
65460;DHT22;52058;49.822;6.754;2023-03-29T07:30:03;9.21;80.07
65460;DHT22;52058;49.822;6.754;2023-03-29T07:32:34;9.30;80.88
65460;DHT22;52058;49.822;6.754;2023-03-29T07:35:01;9.44;80.24
65460;DHT22;52058;49.822;6.754;2023-03-29T07:37:28;9.48;79.92
65460;DHT22;52058;49.822;6.754;2023-03-29T07:39:55;9.63;79.54
65460;DHT22;52058;49.822;6.754;2023-03-29T07:42:23;9.74;79.09
65460;DHT22;52058;49.822;6.754;2023-03-29T07:44:50;9.67;79.94
65460;DHT22;52058;49.822;6.754;2023-03-29T07:47:16;9.72;79.71
65460;DHT22;52058;49.822;6.754;2023-03-29T07:49:44;9.74;78.75
65460;DHT22;52058;49.822;6.754;2023-03-29T07:52:11;9.67;79.45
65460;DHT22;52058;49.822;6.754;2023-03-29T07:54:38;9.72;80.90
65460;DHT22;52058;49.822;6.754;2023-03-29T07:57:05;9.68;79.58
65460;DHT22;52058;49.822;6.754;2023-03-29T07:59:33;9.69;80.15
65460;DHT22;52058;49.822;6.754;2023-03-29T08:02:00;9.44;81.29
65460;DHT22;52058;49.822;6.754;2023-03-29T08:04:27;9.51;79.68
65460;DHT22;52058;49.822;6.754;2023-03-29T08:06:54;9.50;79.14
65460;DHT22;52058;49.822;6.754;2023-03-29T08:09:20;9.45;80.58
65460;DHT22;52058;49.822;6.754;2023-03-29T08:11:47;9.47;78.98
65460;DHT22;52058;49.822;6.754;2023-03-29T08:14:14;9.61;80.10
65460;DHT22;52058;49.822;6.754;2023-03-29T08:16:42;9.77;80.35
65460;DHT22;52058;49.822;6.754;2023-03-29T08:19:10;9.88;80.46
65460;DHT22;52058;49.822;6.754;2023-03-29T08:21:37;10.03;79.56
65460;DHT22;52058;49.822;6.754;2023-03-29T08:24:04;10.24;80.49
65460;DHT22;52058;49.822;6.754;2023-03-29T08:26:31;10.46;79.24
65460;DHT22;52058;49.822;6.754;2023-03-29T08:28:58;10.57;78.35
65460;DHT22;52058;49.822;6.754;2023-03-29T08:31:25;10.75;78.62
65460;DHT22;52058;49.822;6.754;2023-03-29T08:33:53;10.75;77.82
65460;DHT22;52058;49.822;6.754;2023-03-29T08:36:20;10.84;75.63
65460;DHT22;52058;49.822;6.754;2023-03-29T08:38:47;10.91;77.80
65460;DHT22;52058;49.822;6.754;2023-03-29T08:41:27;11.02;78.80
65460;DHT22;52058;49.822;6.754;2023-03-29T08:44:07;10.99;76.24
65460;DHT22;52058;49.822;6.754;2023-03-29T08:46:41;10.56;78.21
65460;DHT22;52058;49.822;6.754;2023-03-29T08:49:11;10.87;77.22
65460;DHT22;52058;49.822;6.754;2023-03-29T08:51:40;10.98;76.74
65460;DHT22;52058;49.822;6.754;2023-03-29T08:54:12;11.26;77.81
65460;DHT22;52058;49.822;6.754;2023-03-29T08:56:41;11.47;77.81
65460;DHT22;52058;49.822;6.754;2023-03-29T08:59:16;11.80;75.61
65460;DHT22;52058;49.822;6.754;2023-03-29T09:01:47;11.87;76.66
65460;DHT22;52058;49.822;6.754;2023-03-29T09:04:18;11.95;74.66
65460;DHT22;52058;49.822;6.754;2023-03-29T09:06:47;12.18;76.11
65460;DHT22;52058;49.822;6.754;2023-03-29T09:09:16;12.22;76.17
65460;DHT22;52058;49.822;6.754;2023-03-29T09:11:55;12.01;75.89
65460;DHT22;52058;49.822;6.754;2023-03-29T09:14:37;12.10;75.68
65460;DHT22;52058;49.822;6.754;2023-03-29T09:17:16;12.22;76.59
65460;DHT22;52058;49.822;6.754;2023-03-29T09:19:52;12.41;75.50
65460;DHT22;52058;49.822;6.754;2023-03-29T09:22:25;12.63;73.52
65460;DHT22;52058;49.822;6.754;2023-03-29T09:25:02;13.18;74.81
65460;DHT22;52058;49.822;6.754;2023-03-29T09:27:34;13.06;73.83
65460;DHT22;52058;49.822;6.754;2023-03-29T09:30:11;13.17;72.94
65460;DHT22;52058;49.822;6.754;2023-03-29T09:32:47;13.03;72.45
65460;DHT22;52058;49.822;6.754;2023-03-29T09:35:21;13.48;74.69
65460;DHT22;52058;49.822;6.754;2023-03-29T09:37:50;13.55;72.17
65460;DHT22;52058;49.822;6.754;2023-03-29T09:40:20;13.75;71.43
65460;DHT22;52058;49.822;6.754;2023-03-29T09:42:48;13.54;72.27
65460;DHT22;52058;49.822;6.754;2023-03-29T09:45:16;13.25;72.63
65460;DHT22;52058;49.822;6.754;2023-03-29T09:47:47;13.35;72.31
65460;DHT22;52058;49.822;6.754;2023-03-29T09:50:20;13.76;71.74
65460;DHT22;52058;49.822;6.754;2023-03-29T09:52:48;13.96;70.24
65460;DHT22;52058;49.822;6.754;2023-03-29T09:55:18;14.02;70.00
65460;DHT22;52058;49.822;6.754;2023-03-29T09:57:46;14.14;71.31
65460;DHT22;52058;49.822;6.754;2023-03-29T10:00:15;14.08;70.44
65460;DHT22;52058;49.822;6.754;2023-03-29T10:02:49;13.89;71.37
65460;DHT22;52058;49.822;6.754;2023-03-29T10:05:18;13.57;72.15
65460;DHT22;52058;49.822;6.754;2023-03-29T10:07:50;13.58;70.95
65460;DHT22;52058;49.822;6.754;2023-03-29T10:10:21;13.25;71.96
65460;DHT22;52058;49.822;6.754;2023-03-29T10:12:50;13.23;71.73
65460;DHT22;52058;49.822;6.754;2023-03-29T10:15:18;13.58;70.10
65460;DHT22;52058;49.822;6.754;2023-03-29T10:17:46;14.03;69.71
65460;DHT22;52058;49.822;6.754;2023-03-29T10:20:15;14.16;69.06
65460;DHT22;52058;49.822;6.754;2023-03-29T10:22:48;14.23;70.45
65460;DHT22;52058;49.822;6.754;2023-03-29T10:25:16;14.29;70.18
65460;DHT22;52058;49.822;6.754;2023-03-29T10:27:45;14.38;68.39
65460;DHT22;52058;49.822;6.754;2023-03-29T10:30:19;14.30;67.31
65460;DHT22;52058;49.822;6.754;2023-03-29T10:32:51;14.30;68.01
65460;DHT22;52058;49.822;6.754;2023-03-29T10:35:22;14.41;67.00
65460;DHT22;52058;49.822;6.754;2023-03-29T10:37:52;14.47;67.75
65460;DHT22;52058;49.822;6.754;2023-03-29T10:40:24;14.38;67.02
65460;DHT22;52058;49.822;6.754;2023-03-29T10:42:52;14.38;67.00
65460;DHT22;52058;49.822;6.754;2023-03-29T10:45:25;14.60;66.45
65460;DHT22;52058;49.822;6.754;2023-03-29T10:47:53;14.60;65.18
65460;DHT22;52058;49.822;6.754;2023-03-29T10:50:20;14.78;64.58
65460;DHT22;52058;49.822;6.754;2023-03-29T10:52:47;14.79;64.61
65460;DHT22;52058;49.822;6.754;2023-03-29T10:55:16;15.16;64.45
65460;DHT22;52058;49.822;6.754;2023-03-29T10:57:52;15.13;63.75
65460;DHT22;52058;49.822;6.754;2023-03-29T11:00:27;15.33;63.02
65460;DHT22;52058;49.822;6.754;2023-03-29T11:03:24;15.25;64.08
65460;DHT22;52058;49.822;6.754;2023-03-29T11:05:57;15.47;63.34
65460;DHT22;52058;49.822;6.754;2023-03-29T11:08:37;15.25;63.94
65460;DHT22;52058;49.822;6.754;2023-03-29T11:11:21;15.66;63.39
65460;DHT22;52058;49.822;6.754;2023-03-29T11:13:56;15.81;62.36
65460;DHT22;52058;49.822;6.754;2023-03-29T11:16:30;15.84;62.68
65460;DHT22;52058;49.822;6.754;2023-03-29T11:19:10;16.21;62.57
65460;DHT22;52058;49.822;6.754;2023-03-29T11:21:42;16.12;62.23
65460;DHT22;52058;49.822;6.754;2023-03-29T11:24:25;15.86;63.54
65460;DHT22;52058;49.822;6.754;2023-03-29T11:27:03;15.80;62.77
65460;DHT22;52058;49.822;6.754;2023-03-29T11:29:38;15.59;63.39
65460;DHT22;52058;49.822;6.754;2023-03-29T11:32:13;15.87;63.64
65460;DHT22;52058;49.822;6.754;2023-03-29T11:34:50;16.15;64.90
65460;DHT22;52058;49.822;6.754;2023-03-29T11:37:23;15.74;64.53
65460;DHT22;52058;49.822;6.754;2023-03-29T11:40:04;15.57;64.66
65460;DHT22;52058;49.822;6.754;2023-03-29T11:42:42;15.91;64.06
65460;DHT22;52058;49.822;6.754;2023-03-29T11:45:13;16.00;63.73
65460;DHT22;52058;49.822;6.754;2023-03-29T11:47:42;16.14;63.93
65460;DHT22;52058;49.822;6.754;2023-03-29T11:50:17;16.17;64.10
65460;DHT22;52058;49.822;6.754;2023-03-29T11:52:49;16.24;64.41
65460;DHT22;52058;49.822;6.754;2023-03-29T11:55:18;16.41;64.32
65460;DHT22;52058;49.822;6.754;2023-03-29T11:57:51;16.66;63.59
65460;DHT22;52058;49.822;6.754;2023-03-29T12:00:22;16.63;64.01
65460;DHT22;52058;49.822;6.754;2023-03-29T12:02:54;16.67;64.27
65460;DHT22;52058;49.822;6.754;2023-03-29T12:05:27;16.72;63.47
65460;DHT22;52058;49.822;6.754;2023-03-29T12:07:58;17.15;64.12
65460;DHT22;52058;49.822;6.754;2023-03-29T12:10:30;17.25;63.15
65460;DHT22;52058;49.822;6.754;2023-03-29T12:13:02;17.39;63.25
65460;DHT22;52058;49.822;6.754;2023-03-29T12:15:35;16.90;63.69
65460;DHT22;52058;49.822;6.754;2023-03-29T12:18:11;17.52;63.27
65460;DHT22;52058;49.822;6.754;2023-03-29T12:20:40;17.72;62.73
65460;DHT22;52058;49.822;6.754;2023-03-29T12:23:07;17.58;62.98
65460;DHT22;52058;49.822;6.754;2023-03-29T12:25:41;17.66;63.47
65460;DHT22;52058;49.822;6.754;2023-03-29T12:28:26;17.55;64.32
65460;DHT22;52058;49.822;6.754;2023-03-29T12:31:07;17.42;63.73
65460;DHT22;52058;49.822;6.754;2023-03-29T12:33:48;17.46;64.62
65460;DHT22;52058;49.822;6.754;2023-03-29T12:36:34;17.30;64.60
65460;DHT22;52058;49.822;6.754;2023-03-29T12:39:04;16.97;65.49
65460;DHT22;52058;49.822;6.754;2023-03-29T12:41:35;16.77;66.21
65460;DHT22;52058;49.822;6.754;2023-03-29T12:44:04;16.90;66.37
65460;DHT22;52058;49.822;6.754;2023-03-29T12:46:31;17.35;65.73
65460;DHT22;52058;49.822;6.754;2023-03-29T12:49:05;17.65;65.06
65460;DHT22;52058;49.822;6.754;2023-03-29T12:51:38;18.04;63.90
65460;DHT22;52058;49.822;6.754;2023-03-29T12:54:11;17.97;63.58
65460;DHT22;52058;49.822;6.754;2023-03-29T12:56:53;18.61;63.33
65460;DHT22;52058;49.822;6.754;2023-03-29T12:59:26;18.23;62.99
65460;DHT22;52058;49.822;6.754;2023-03-29T13:02:00;18.09;64.25
65460;DHT22;52058;49.822;6.754;2023-03-29T13:04:36;17.92;64.27
65460;DHT22;52058;49.822;6.754;2023-03-29T13:07:04;17.90;64.34
65460;DHT22;52058;49.822;6.754;2023-03-29T13:09:46;17.18;66.43
65460;DHT22;52058;49.822;6.754;2023-03-29T13:12:21;16.67;67.74
65460;DHT22;52058;49.822;6.754;2023-03-29T13:14:53;16.48;68.83
65460;DHT22;52058;49.822;6.754;2023-03-29T13:17:26;16.08;70.16
65460;DHT22;52058;49.822;6.754;2023-03-29T13:20:10;16.26;71.30
65460;DHT22;52058;49.822;6.754;2023-03-29T13:22:46;16.35;72.41
65460;DHT22;52058;49.822;6.754;2023-03-29T13:25:35;16.11;73.61
65460;DHT22;52058;49.822;6.754;2023-03-29T13:28:11;15.71;75.39
65460;DHT22;52058;49.822;6.754;2023-03-29T13:30:49;15.74;76.78
65460;DHT22;52058;49.822;6.754;2023-03-29T13:33:36;15.67;77.99
65460;DHT22;52058;49.822;6.754;2023-03-29T13:36:09;15.60;78.80
65460;DHT22;52058;49.822;6.754;2023-03-29T13:38:44;15.44;79.13
65460;DHT22;52058;49.822;6.754;2023-03-29T13:41:26;15.22;79.51
65460;DHT22;52058;49.822;6.754;2023-03-29T13:43:55;15.33;79.86
65460;DHT22;52058;49.822;6.754;2023-03-29T13:46:34;15.49;79.54
65460;DHT22;52058;49.822;6.754;2023-03-29T13:49:13;15.94;78.40
65460;DHT22;52058;49.822;6.754;2023-03-29T13:51:42;15.80;78.18
65460;DHT22;52058;49.822;6.754;2023-03-29T13:54:20;16.12;77.49
65460;DHT22;52058;49.822;6.754;2023-03-29T13:56:56;15.98;77.62
65460;DHT22;52058;49.822;6.754;2023-03-29T13:59:26;16.19;76.64
65460;DHT22;52058;49.822;6.754;2023-03-29T14:01:56;16.52;76.35
65460;DHT22;52058;49.822;6.754;2023-03-29T14:04:26;16.63;76.40
65460;DHT22;52058;49.822;6.754;2023-03-29T14:06:55;16.81;74.06
65460;DHT22;52058;49.822;6.754;2023-03-29T14:09:24;16.72;74.45
65460;DHT22;52058;49.822;6.754;2023-03-29T14:11:52;16.81;73.95
65460;DHT22;52058;49.822;6.754;2023-03-29T14:14:21;16.69;73.73
65460;DHT22;52058;49.822;6.754;2023-03-29T14:16:49;16.96;74.08
65460;DHT22;52058;49.822;6.754;2023-03-29T14:19:22;17.20;73.21
65460;DHT22;52058;49.822;6.754;2023-03-29T14:21:51;17.23;73.06
65460;DHT22;52058;49.822;6.754;2023-03-29T14:24:20;17.55;71.86
65460;DHT22;52058;49.822;6.754;2023-03-29T14:26:47;18.92;69.37
65460;DHT22;52058;49.822;6.754;2023-03-29T14:29:14;19.61;66.98
65460;DHT22;52058;49.822;6.754;2023-03-29T14:31:42;20.02;65.68
65460;DHT22;52058;49.822;6.754;2023-03-29T14:34:12;19.97;67.02
65460;DHT22;52058;49.822;6.754;2023-03-29T14:36:43;19.37;66.93
65460;DHT22;52058;49.822;6.754;2023-03-29T14:39:11;18.89;67.78
65460;DHT22;52058;49.822;6.754;2023-03-29T14:41:45;18.00;70.06
65460;DHT22;52058;49.822;6.754;2023-03-29T14:44:13;17.87;70.89
65460;DHT22;52058;49.822;6.754;2023-03-29T14:46:41;17.61;71.13
65460;DHT22;52058;49.822;6.754;2023-03-29T14:49:13;17.56;72.09
65460;DHT22;52058;49.822;6.754;2023-03-29T14:51:42;17.32;72.54
65460;DHT22;52058;49.822;6.754;2023-03-29T14:54:16;17.13;72.91
65460;DHT22;52058;49.822;6.754;2023-03-29T14:56:44;16.94;73.34
65460;DHT22;52058;49.822;6.754;2023-03-29T14:59:23;17.15;72.42
65460;DHT22;52058;49.822;6.754;2023-03-29T15:01:50;17.06;72.56
65460;DHT22;52058;49.822;6.754;2023-03-29T15:04:17;16.91;73.01
65460;DHT22;52058;49.822;6.754;2023-03-29T15:06:46;16.75;73.66
65460;DHT22;52058;49.822;6.754;2023-03-29T15:09:18;16.57;73.92
65460;DHT22;52058;49.822;6.754;2023-03-29T15:11:51;16.48;74.08
65460;DHT22;52058;49.822;6.754;2023-03-29T15:14:19;16.24;74.42
65460;DHT22;52058;49.822;6.754;2023-03-29T15:16:49;16.25;75.08
65460;DHT22;52058;49.822;6.754;2023-03-29T15:19:18;16.28;74.74
65460;DHT22;52058;49.822;6.754;2023-03-29T15:21:48;16.38;74.49
65460;DHT22;52058;49.822;6.754;2023-03-29T15:24:21;16.44;75.25
65460;DHT22;52058;49.822;6.754;2023-03-29T15:26:59;16.42;74.41
65460;DHT22;52058;49.822;6.754;2023-03-29T15:29:33;16.45;74.28
65460;DHT22;52058;49.822;6.754;2023-03-29T15:32:00;16.45;74.00
65460;DHT22;52058;49.822;6.754;2023-03-29T15:34:29;16.44;73.75
65460;DHT22;52058;49.822;6.754;2023-03-29T15:36:58;16.62;73.41
65460;DHT22;52058;49.822;6.754;2023-03-29T15:39:26;16.79;72.73
65460;DHT22;52058;49.822;6.754;2023-03-29T15:41:54;16.90;72.39
65460;DHT22;52058;49.822;6.754;2023-03-29T15:44:25;17.00;72.14
65460;DHT22;52058;49.822;6.754;2023-03-29T15:46:53;16.96;71.76
65460;DHT22;52058;49.822;6.754;2023-03-29T15:49:22;16.90;71.68
65460;DHT22;52058;49.822;6.754;2023-03-29T15:51:48;16.76;72.03
65460;DHT22;52058;49.822;6.754;2023-03-29T15:54:18;16.63;72.57
65460;DHT22;52058;49.822;6.754;2023-03-29T15:56:49;16.60;72.21
65460;DHT22;52058;49.822;6.754;2023-03-29T15:59:17;16.53;73.03